createdAt,value
2018-11-07T00:01:22.655Z,12.80
2018-11-07T00:04:00.760Z,12.70
2018-11-07T00:06:34.933Z,12.70
2018-11-07T00:09:04.230Z,12.70
2018-11-07T00:11:39.030Z,12.60
2018-11-07T00:14:19.368Z,12.60
2018-11-07T00:16:48.180Z,12.50
2018-11-07T00:19:16.722Z,12.50
2018-11-07T00:21:51.854Z,12.40
2018-11-07T00:24:20.309Z,12.50
2018-11-07T00:26:56.893Z,12.40
2018-11-07T00:29:33.081Z,12.40
2018-11-07T00:32:07.582Z,12.40
2018-11-07T00:34:48.097Z,12.40
2018-11-07T00:37:22.173Z,12.30
2018-11-07T00:39:57.757Z,12.30
2018-11-07T00:42:31.749Z,12.30
2018-11-07T00:45:00.305Z,12.30
2018-11-07T00:47:29.197Z,12.30
2018-11-07T00:50:00.896Z,12.40
2018-11-07T00:52:29.419Z,12.40
2018-11-07T00:54:58.117Z,12.40
2018-11-07T00:57:26.623Z,12.40
2018-11-07T00:59:55.139Z,12.30
2018-11-07T01:02:37.127Z,12.20
2018-11-07T01:05:06.648Z,12.20
2018-11-07T01:07:43.279Z,12.10
2018-11-07T01:10:21.642Z,12.10
2018-11-07T01:12:53.368Z,12.10
2018-11-07T01:15:34.240Z,12.00
2018-11-07T01:18:15.307Z,12.00
2018-11-07T01:20:55.841Z,12.00
2018-11-07T01:23:34.120Z,11.90
2018-11-07T01:26:03.453Z,11.80
2018-11-07T01:28:38.040Z,11.80
2018-11-07T01:31:12.252Z,11.80
2018-11-07T01:33:40.847Z,11.80
2018-11-07T01:36:09.489Z,11.80
2018-11-07T01:38:45.845Z,11.80
2018-11-07T01:41:18.023Z,11.70
2018-11-07T01:43:51.920Z,11.70
2018-11-07T01:46:30.383Z,11.70
2018-11-07T01:49:04.932Z,11.60
2018-11-07T01:51:45.780Z,11.60
2018-11-07T01:54:24.232Z,11.60
2018-11-07T01:56:52.772Z,11.60
2018-11-07T02:02:23.904Z,11.50
2018-11-07T02:04:59.550Z,11.50
2018-11-07T02:07:33.806Z,11.50
2018-11-07T02:10:12.148Z,11.50
2018-11-07T02:12:43.806Z,11.40
2018-11-07T02:15:16.060Z,11.40
2018-11-07T02:17:44.656Z,11.40
2018-11-07T02:20:13.207Z,11.40
2018-11-07T02:22:53.870Z,11.40
2018-11-07T02:25:22.517Z,11.30
2018-11-07T02:27:51.041Z,11.20
2018-11-07T02:30:19.674Z,11.20
2018-11-07T02:32:48.183Z,11.20
2018-11-07T02:35:20.655Z,11.10
2018-11-07T02:37:49.185Z,11.10
2018-11-07T02:40:17.851Z,11.00
2018-11-07T02:42:46.458Z,11.10
2018-11-07T02:45:21.323Z,11.10
2018-11-07T02:47:52.878Z,11.10
2018-11-07T02:50:21.997Z,11.10
2018-11-07T02:53:04.857Z,11.10
2018-11-07T02:55:33.362Z,11.10
2018-11-07T02:58:11.159Z,11.10
2018-11-07T03:00:43.220Z,11.10
2018-11-07T03:03:22.738Z,11.20
2018-11-07T03:06:02.465Z,11.20
2018-11-07T03:08:44.200Z,11.30
2018-11-07T03:11:16.841Z,11.30
2018-11-07T03:13:45.790Z,11.30
2018-11-07T03:16:27.032Z,11.30
2018-11-07T03:18:59.060Z,11.20
2018-11-07T03:21:27.614Z,11.20
2018-11-07T03:23:56.254Z,11.10
2018-11-07T03:26:31.186Z,11.00
2018-11-07T03:29:11.512Z,10.90
2018-11-07T03:31:45.497Z,10.90
2018-11-07T03:34:19.530Z,10.80
2018-11-07T03:36:53.890Z,10.80
2018-11-07T03:39:28.094Z,10.80
2018-11-07T03:42:02.092Z,10.80
2018-11-07T03:44:31.219Z,10.90
2018-11-07T03:47:05.345Z,10.90
2018-11-07T03:49:36.993Z,10.90
2018-11-07T03:52:13.088Z,10.90
2018-11-07T03:54:47.408Z,10.90
2018-11-07T03:57:22.037Z,10.90
2018-11-07T03:59:58.002Z,10.90
2018-11-07T04:02:26.561Z,10.90
2018-11-07T04:05:01.121Z,10.80
2018-11-07T04:10:35.087Z,10.80
2018-11-07T04:13:15.967Z,10.80
2018-11-07T04:15:50.237Z,10.80
2018-11-07T04:18:26.559Z,10.80
2018-11-07T04:21:01.308Z,10.80
2018-11-07T04:23:39.424Z,10.80
2018-11-07T04:26:20.020Z,10.90
2018-11-07T04:28:56.341Z,10.80
2018-11-07T04:31:34.483Z,10.70
2018-11-07T04:34:08.858Z,10.70
2018-11-07T04:36:49.866Z,10.60
2018-11-07T04:39:23.888Z,10.60
2018-11-07T04:41:58.418Z,10.50
2018-11-07T04:44:34.801Z,10.50
2018-11-07T04:47:13.191Z,10.50
2018-11-07T04:49:47.931Z,10.40
2018-11-07T04:52:20.075Z,10.40
2018-11-07T04:54:55.641Z,10.50
2018-11-07T04:57:31.001Z,10.50
2018-11-07T05:00:06.157Z,10.50
2018-11-07T05:02:41.503Z,10.50
2018-11-07T05:05:13.828Z,10.40
2018-11-07T05:07:46.766Z,10.40
2018-11-07T05:10:25.210Z,10.40
2018-11-07T05:12:59.424Z,10.40
2018-11-07T05:15:33.686Z,10.40
2018-11-07T05:18:08.354Z,10.40
2018-11-07T05:20:38.587Z,10.40
2018-11-07T05:23:16.834Z,10.40
2018-11-07T05:25:51.172Z,10.30
2018-11-07T05:28:31.480Z,10.30
2018-11-07T05:31:07.963Z,10.20
2018-11-07T05:33:42.511Z,10.20
2018-11-07T05:36:18.748Z,10.20
2018-11-07T05:38:54.224Z,10.20
2018-11-07T05:41:30.539Z,10.30
2018-11-07T05:44:05.043Z,10.30
2018-11-07T05:46:39.511Z,10.20
2018-11-07T05:49:14.523Z,10.20
2018-11-07T05:51:55.408Z,10.20
2018-11-07T05:54:29.384Z,10.20
2018-11-07T05:57:04.211Z,10.20
2018-11-07T05:59:40.360Z,10.20
2018-11-07T06:02:18.589Z,10.10
2018-11-07T06:04:52.945Z,10.10
2018-11-07T06:07:33.565Z,10.00
2018-11-07T06:10:09.773Z,10.00
2018-11-07T06:12:46.510Z,9.90
2018-11-07T06:15:18.767Z,9.90
2018-11-07T06:17:53.183Z,10.00
2018-11-07T06:20:28.524Z,10.00
2018-11-07T06:23:02.956Z,10.00
2018-11-07T06:25:34.862Z,10.00
2018-11-07T06:28:15.164Z,10.00
2018-11-07T06:30:50.030Z,10.10
2018-11-07T06:33:26.659Z,10.10
2018-11-07T06:36:01.994Z,10.00
2018-11-07T06:38:33.854Z,10.00
2018-11-07T06:41:06.058Z,10.00
2018-11-07T06:43:41.760Z,10.10
2018-11-07T06:46:17.994Z,10.10
2018-11-07T06:48:52.718Z,10.10
2018-11-07T06:51:23.284Z,10.10
2018-11-07T06:53:57.270Z,10.10
2018-11-07T06:56:31.475Z,10.10
2018-11-07T06:59:05.951Z,10.20
2018-11-07T07:01:40.746Z,10.20
2018-11-07T07:04:14.977Z,10.20
2018-11-07T07:06:49.633Z,10.20
2018-11-07T07:09:24.397Z,10.20
2018-11-07T07:12:00.983Z,10.20
2018-11-07T07:14:34.863Z,10.20
2018-11-07T07:17:11.508Z,10.20
2018-11-07T07:19:49.882Z,10.30
2018-11-07T07:22:30.599Z,10.30
2018-11-07T07:25:06.625Z,10.40
2018-11-07T07:27:41.315Z,10.40
2018-11-07T07:30:19.441Z,10.50
2018-11-07T07:32:55.592Z,10.60
2018-11-07T07:35:29.528Z,10.70
2018-11-07T07:38:03.780Z,10.90
2018-11-07T07:40:40.199Z,11.00
2018-11-07T07:43:14.100Z,11.30
2018-11-07T07:45:49.444Z,11.70
2018-11-07T07:48:23.902Z,12.90
2018-11-07T07:51:04.406Z,14.50
2018-11-07T07:53:40.508Z,15.10
2018-11-07T07:56:12.657Z,15.90
2018-11-07T07:58:45.148Z,16.00
2018-11-07T08:01:22.044Z,17.10
2018-11-07T08:04:08.357Z,17.10
2018-11-07T08:06:42.317Z,16.20
2018-11-07T08:09:16.354Z,16.00
2018-11-07T08:11:50.379Z,16.40
2018-11-07T08:14:28.676Z,17.60
2018-11-07T08:17:03.467Z,17.80
2018-11-07T08:19:39.491Z,17.10
2018-11-07T08:22:13.589Z,15.70
2018-11-07T08:24:51.755Z,15.30
2018-11-07T08:27:21.313Z,16.50
2018-11-07T08:29:55.827Z,18.00
2018-11-07T08:32:34.322Z,18.30
2018-11-07T08:35:07.479Z,18.40
2018-11-07T08:37:38.684Z,18.80
2018-11-07T08:40:19.916Z,18.80
2018-11-07T08:42:53.760Z,19.80
2018-11-07T08:45:22.407Z,20.00
2018-11-07T08:47:57.124Z,20.50
2018-11-07T08:50:28.801Z,18.90
2018-11-07T08:53:03.370Z,17.90
2018-11-07T08:55:38.557Z,17.10
2018-11-07T08:58:12.555Z,18.10
2018-11-07T09:00:49.272Z,17.80
2018-11-07T09:03:17.834Z,17.70
2018-11-07T09:05:46.468Z,17.80
2018-11-07T09:08:15.019Z,18.70
2018-11-07T09:10:50.280Z,18.20
2018-11-07T09:13:26.410Z,18.00
2018-11-07T09:16:02.468Z,17.20
2018-11-07T09:18:36.672Z,16.20
2018-11-07T09:21:10.492Z,15.60
2018-11-07T09:23:39.116Z,15.20
2018-11-07T09:26:14.358Z,14.90
2018-11-07T09:28:48.358Z,14.60
2018-11-07T09:31:22.387Z,14.50
2018-11-07T09:33:51.864Z,14.40
2018-11-07T09:39:43.743Z,14.20
2018-11-07T09:42:28.887Z,14.30
2018-11-07T09:45:25.941Z,14.30
2018-11-07T09:48:00.694Z,14.50
2018-11-07T09:50:40.977Z,14.70
2018-11-07T09:53:13.397Z,14.70
2018-11-07T09:55:50.029Z,14.80
2018-11-07T09:58:19.567Z,14.80
2018-11-07T10:01:00.101Z,15.00
2018-11-07T10:03:38.553Z,15.10
2018-11-07T10:06:07.177Z,15.10
2018-11-07T10:08:35.685Z,15.00
2018-11-07T10:11:04.316Z,14.70
2018-11-07T10:13:32.883Z,14.60
2018-11-07T10:16:02.483Z,14.60
2018-11-07T10:18:38.609Z,14.70
2018-11-07T10:21:14.991Z,14.60
2018-11-07T10:23:43.587Z,14.60
2018-11-07T10:26:12.058Z,14.70
2018-11-07T10:28:40.807Z,14.70
2018-11-07T10:31:09.878Z,14.70
2018-11-07T10:33:38.444Z,14.70
2018-11-07T10:36:06.894Z,14.60
2018-11-07T10:38:41.505Z,14.70
2018-11-07T10:41:17.694Z,14.70
2018-11-07T10:43:54.517Z,14.80
2018-11-07T10:46:23.542Z,14.80
2018-11-07T10:48:52.095Z,14.80
2018-11-07T10:51:20.690Z,15.00
2018-11-07T10:53:49.242Z,14.90
2018-11-07T10:56:17.784Z,14.80
2018-11-07T10:58:52.820Z,14.90
2018-11-07T11:01:26.706Z,14.90
2018-11-07T11:03:55.213Z,14.80
2018-11-07T11:06:23.843Z,14.80
2018-11-07T11:08:52.473Z,14.80
2018-11-07T11:11:21.172Z,14.90
2018-11-07T11:13:49.580Z,15.00
2018-11-07T11:16:18.211Z,15.00
2018-11-07T11:18:46.699Z,15.10
2018-11-07T11:21:15.289Z,15.10
2018-11-07T11:23:43.826Z,15.20
2018-11-07T11:26:12.361Z,15.20
2018-11-07T11:28:40.932Z,15.20
2018-11-07T11:31:15.100Z,15.20
2018-11-07T11:33:47.029Z,15.30
2018-11-07T11:36:16.575Z,15.30
2018-11-07T11:38:45.048Z,15.20
2018-11-07T11:41:13.696Z,15.20
2018-11-07T11:43:42.882Z,15.30
2018-11-07T11:46:11.443Z,15.40
2018-11-07T11:48:40.157Z,15.40
2018-11-07T11:51:08.823Z,15.50
2018-11-07T11:53:42.733Z,15.50
2018-11-07T11:56:19.491Z,15.60
2018-11-07T11:58:53.689Z,15.60
2018-11-07T12:01:23.210Z,15.70
2018-11-07T12:03:51.715Z,15.80
2018-11-07T12:06:25.844Z,15.90
2018-11-07T12:08:54.361Z,15.90
2018-11-07T12:11:30.174Z,15.80
2018-11-07T12:14:08.247Z,15.90
2018-11-07T12:16:46.430Z,15.90
2018-11-07T12:19:22.402Z,15.90
2018-11-07T12:22:00.583Z,15.90
2018-11-07T12:24:29.076Z,15.90
2018-11-07T12:27:07.536Z,15.90
2018-11-07T12:29:41.804Z,15.80
2018-11-07T12:32:16.474Z,15.80
2018-11-07T12:34:50.900Z,15.70
2018-11-07T12:37:28.484Z,15.60
2018-11-07T12:40:03.240Z,15.70
2018-11-07T12:42:41.574Z,15.70
2018-11-07T12:45:16.626Z,15.80
2018-11-07T12:47:48.923Z,15.70
2018-11-07T12:50:25.633Z,15.80
2018-11-07T12:53:04.111Z,15.80
2018-11-07T12:55:40.591Z,15.80
2018-11-07T13:01:14.781Z,15.80
2018-11-07T13:03:52.842Z,15.70
2018-11-07T13:06:27.521Z,15.70
2018-11-07T13:09:01.845Z,15.70
2018-11-07T13:11:36.331Z,15.60
2018-11-07T13:14:05.195Z,15.60
2018-11-07T13:16:43.513Z,15.60
2018-11-07T13:19:19.505Z,15.80
2018-11-07T13:21:58.119Z,15.90
2018-11-07T13:24:34.217Z,15.90
2018-11-07T13:27:09.009Z,15.80
2018-11-07T13:29:38.596Z,15.80
2018-11-07T13:32:16.829Z,15.70
2018-11-07T13:34:58.031Z,15.60
2018-11-07T13:37:36.155Z,15.50
2018-11-07T13:40:16.073Z,15.40
2018-11-07T13:42:45.700Z,15.30
2018-11-07T13:45:22.516Z,15.30
2018-11-07T13:47:56.725Z,15.30
2018-11-07T13:50:31.970Z,15.20
2018-11-07T13:53:08.694Z,15.20
2018-11-07T13:55:49.772Z,15.20
2018-11-07T13:58:18.375Z,15.20
2018-11-07T14:00:46.918Z,15.20
2018-11-07T14:03:15.576Z,15.20
2018-11-07T14:05:51.392Z,15.10
2018-11-07T14:08:25.612Z,15.10
2018-11-07T14:10:55.130Z,15.10
2018-11-07T14:13:23.612Z,15.00
2018-11-07T14:15:52.235Z,15.00
2018-11-07T14:18:20.732Z,14.90
2018-11-07T14:20:49.327Z,14.80
2018-11-07T14:23:17.925Z,14.80
2018-11-07T14:25:52.263Z,14.80
2018-11-07T14:28:21.033Z,14.70
2018-11-07T14:30:49.353Z,14.70
2018-11-07T14:33:19.221Z,14.70
2018-11-07T14:40:01.953Z,14.90
2018-11-07T14:42:30.448Z,15.40
2018-11-07T14:45:05.163Z,15.80
2018-11-07T14:47:41.678Z,16.10
2018-11-07T14:50:10.974Z,16.50
2018-11-07T14:52:39.497Z,16.80
2018-11-07T14:55:08.733Z,17.00
2018-11-07T14:57:37.476Z,17.20
2018-11-07T15:00:11.218Z,17.40
2018-11-07T15:02:40.321Z,17.50
2018-11-07T15:05:10.486Z,17.70
2018-11-07T15:07:39.294Z,17.80
2018-11-07T15:10:09.104Z,17.90
2018-11-07T15:12:37.701Z,18.00
2018-11-07T15:15:07.658Z,18.10
2018-11-07T15:17:36.188Z,18.10
2018-11-07T15:20:04.816Z,18.20
2018-11-07T15:22:33.415Z,18.20
2018-11-07T15:25:01.975Z,18.30
2018-11-07T15:27:30.422Z,18.30
2018-11-07T15:29:59.050Z,18.40
2018-11-07T15:32:27.569Z,18.40
2018-11-07T15:34:56.071Z,18.40
2018-11-07T15:37:24.743Z,18.50
2018-11-07T15:39:53.263Z,18.50
2018-11-07T15:42:22.500Z,18.50
2018-11-07T15:44:50.984Z,18.50
2018-11-07T15:47:19.535Z,18.60
2018-11-07T15:50:52.022Z,18.60
2018-11-07T15:53:20.649Z,18.60
2018-11-07T15:55:49.159Z,18.60
2018-11-07T15:58:17.776Z,18.60
2018-11-07T16:00:46.647Z,18.60
2018-11-07T16:03:23.747Z,18.60
2018-11-07T16:05:52.270Z,18.60
2018-11-07T16:08:21.119Z,18.60
2018-11-07T16:10:53.549Z,18.60
2018-11-07T16:13:22.159Z,18.60
2018-11-07T16:15:56.467Z,18.70
2018-11-07T16:18:25.057Z,18.70
2018-11-07T16:20:55.686Z,18.70
2018-11-07T16:23:24.331Z,18.70
2018-11-07T16:25:52.892Z,18.70
2018-11-07T16:28:21.422Z,18.70
2018-11-07T16:31:06.918Z,18.70
2018-11-07T16:33:35.448Z,18.70
2018-11-07T16:36:04.560Z,18.70
2018-11-07T16:38:33.080Z,18.70
2018-11-07T16:41:01.631Z,18.70
2018-11-07T16:43:30.054Z,18.70
2018-11-07T16:46:04.915Z,18.70
2018-11-07T16:48:33.504Z,18.70
2018-11-07T16:51:01.958Z,18.70
2018-11-07T16:53:30.455Z,18.70
2018-11-07T16:55:59.054Z,18.70
2018-11-07T16:58:27.554Z,18.70
2018-11-07T17:00:56.079Z,18.70
2018-11-07T17:03:24.496Z,18.70
2018-11-07T17:06:05.916Z,18.70
2018-11-07T17:08:34.472Z,18.70
2018-11-07T17:11:03.020Z,18.70
2018-11-07T17:13:31.781Z,18.70
2018-11-07T17:16:07.672Z,18.70
2018-11-07T17:18:37.466Z,18.70
2018-11-07T17:21:12.222Z,18.70
2018-11-07T17:23:45.093Z,18.70
2018-11-07T17:26:14.440Z,18.70
2018-11-07T17:28:42.914Z,18.70
2018-11-07T17:31:26.514Z,18.70
2018-11-07T17:33:57.649Z,18.70
2018-11-07T17:36:28.439Z,18.70
2018-11-07T17:38:57.079Z,18.70
2018-11-07T17:41:25.723Z,18.70
2018-11-07T17:43:55.456Z,18.70
2018-11-07T17:46:24.005Z,18.70
2018-11-07T17:48:52.557Z,18.70
2018-11-07T17:51:21.148Z,18.70
2018-11-07T17:53:50.781Z,18.70
2018-11-07T17:59:28.159Z,18.70
2018-11-07T18:01:56.879Z,18.70
2018-11-07T18:04:25.327Z,18.70
2018-11-07T18:06:53.783Z,18.70
2018-11-07T18:09:22.331Z,18.70
2018-11-07T18:11:50.853Z,18.70
2018-11-07T18:14:19.342Z,18.70
2018-11-07T18:16:49.897Z,18.70
2018-11-07T18:19:18.512Z,18.70
2018-11-07T18:21:46.987Z,18.70
2018-11-07T18:24:15.486Z,18.70
2018-11-07T18:26:44.047Z,18.70
2018-11-07T18:29:26.693Z,18.70
2018-11-07T18:31:58.448Z,18.70
2018-11-07T18:34:30.235Z,18.70
2018-11-07T18:37:06.860Z,18.70
2018-11-07T18:39:54.644Z,18.70
2018-11-07T18:46:02.438Z,18.70
2018-11-07T18:51:14.710Z,18.70
2018-11-07T18:53:46.697Z,18.70
2018-11-07T18:56:15.271Z,18.70
2018-11-07T18:58:44.228Z,18.70
2018-11-07T19:01:14.332Z,18.70
2018-11-07T19:03:53.021Z,18.70
2018-11-07T19:06:22.170Z,18.70
2018-11-07T19:08:50.678Z,18.70
2018-11-07T19:11:37.610Z,18.70
2018-11-07T19:14:13.930Z,18.70
2018-11-07T19:17:04.654Z,18.70
2018-11-07T19:19:50.257Z,18.70
2018-11-07T19:31:23.435Z,18.70
2018-11-07T19:33:55.807Z,18.70
2018-11-07T19:36:31.708Z,18.70
2018-11-07T19:39:12.429Z,18.70
2018-11-07T19:41:46.355Z,18.70
2018-11-07T19:44:20.787Z,18.70
2018-11-07T19:47:01.778Z,18.70
2018-11-07T19:49:40.551Z,18.70
2018-11-07T19:52:21.295Z,18.70
2018-11-07T19:54:56.155Z,18.70
2018-11-07T19:57:30.465Z,18.70
2018-11-07T20:00:09.697Z,18.70
2018-11-07T20:02:44.917Z,18.70
2018-11-07T20:05:19.367Z,18.70
2018-11-07T20:07:54.887Z,18.70
2018-11-07T20:10:29.359Z,18.70
2018-11-07T20:13:03.713Z,18.70
2018-11-07T20:15:38.084Z,18.70
2018-11-07T20:18:16.336Z,18.70
2018-11-07T20:20:54.270Z,18.70
2018-11-07T20:23:28.548Z,18.70
2018-11-07T20:26:03.709Z,18.70
2018-11-07T20:31:38.676Z,18.70
2018-11-07T20:34:07.287Z,18.70
2018-11-07T20:36:40.652Z,18.70
2018-11-07T20:39:10.968Z,18.70
2018-11-07T20:41:39.737Z,18.70
2018-11-07T20:44:09.112Z,18.70
2018-11-07T20:46:45.816Z,18.70
2018-11-07T20:49:14.628Z,18.70
2018-11-07T20:51:46.453Z,18.70
2018-11-07T20:54:15.152Z,18.70
2018-11-07T20:56:43.830Z,18.70
2018-11-07T20:59:12.465Z,18.70
2018-11-07T21:01:42.101Z,18.70
2018-11-07T21:04:10.587Z,18.70
2018-11-07T21:06:39.790Z,18.70
2018-11-07T21:09:10.211Z,18.70
2018-11-07T21:11:38.745Z,18.70
2018-11-07T21:14:07.723Z,18.70
2018-11-07T21:16:36.243Z,18.70
2018-11-07T21:19:05.024Z,18.70
2018-11-07T21:21:33.755Z,18.70
2018-11-07T21:24:04.851Z,18.70
2018-11-07T21:26:33.361Z,18.70
2018-11-07T21:29:01.998Z,18.70
2018-11-07T21:31:30.462Z,18.70
2018-11-07T21:33:59.006Z,18.70
2018-11-07T21:45:28.110Z,18.70
2018-11-07T21:48:00.341Z,18.70
2018-11-07T21:50:28.863Z,18.70
2018-11-07T21:53:05.093Z,18.70
2018-11-07T21:55:33.629Z,18.60
2018-11-07T21:58:06.212Z,18.70
2018-11-07T22:00:35.054Z,18.70
2018-11-07T22:03:03.549Z,18.70
2018-11-07T22:20:08.910Z,18.60
2018-11-07T22:22:37.826Z,18.60
2018-11-07T22:25:07.095Z,18.60
2018-11-07T22:27:35.601Z,18.60
2018-11-07T22:30:08.365Z,18.60
2018-11-07T22:32:37.261Z,18.60
2018-11-07T22:35:11.041Z,18.60
2018-11-07T22:37:40.023Z,18.60
2018-11-07T22:40:10.364Z,18.60
2018-11-07T22:42:38.789Z,18.60
2018-11-07T22:45:07.709Z,18.70
2018-11-07T22:47:36.486Z,18.60
2018-11-07T22:50:05.407Z,18.60
2018-11-07T22:52:33.921Z,18.60
2018-11-07T22:55:02.416Z,18.60
2018-11-07T22:57:30.863Z,18.60
2018-11-07T23:00:13.415Z,18.60
2018-11-07T23:02:41.904Z,18.60
2018-11-07T23:05:10.460Z,18.60
2018-11-07T23:07:38.960Z,18.60
2018-11-07T23:10:07.786Z,18.60
2018-11-07T23:27:07.455Z,18.60
2018-11-07T23:29:36.084Z,18.60
2018-11-07T23:32:04.590Z,18.60
2018-11-07T23:34:36.598Z,18.60
2018-11-07T23:37:05.041Z,18.60
2018-11-07T23:39:34.602Z,18.60
2018-11-07T23:42:03.204Z,18.60
2018-11-07T23:56:10.519Z,18.60
2018-11-07T23:58:38.996Z,18.60
